createdAt,value
2022-10-20T00:00:10.097Z,7.4
2022-10-20T00:05:10.088Z,7.3
2022-10-20T00:10:10.111Z,7.3
2022-10-20T00:15:10.092Z,7.3
2022-10-20T00:20:10.135Z,7.2
2022-10-20T00:25:10.091Z,7.2
2022-10-20T00:30:10.101Z,7.2
2022-10-20T00:35:10.104Z,7.1
2022-10-20T00:40:10.101Z,7.1
2022-10-20T00:45:10.101Z,7
2022-10-20T00:50:10.106Z,7
2022-10-20T00:55:10.105Z,6.9
2022-10-20T01:00:10.120Z,6.8
2022-10-20T01:05:10.108Z,6.8
2022-10-20T01:10:10.109Z,6.7
2022-10-20T01:15:10.165Z,6.6
2022-10-20T01:20:10.101Z,6.6
2022-10-20T01:25:10.126Z,6.6
2022-10-20T01:30:10.103Z,6.5
2022-10-20T01:35:10.103Z,6.5
2022-10-20T01:40:10.104Z,6.5
2022-10-20T01:45:10.096Z,6.4
2022-10-20T01:50:10.105Z,6.4
2022-10-20T01:55:10.120Z,6.3
2022-10-20T02:00:10.113Z,6.2
2022-10-20T02:05:10.103Z,6.2
2022-10-20T02:10:10.120Z,6.2
2022-10-20T02:15:10.122Z,6.1
2022-10-20T02:20:10.109Z,6.1
2022-10-20T02:25:10.110Z,6
2022-10-20T02:30:10.107Z,6
2022-10-20T02:35:10.099Z,6
2022-10-20T02:40:10.100Z,6
2022-10-20T02:45:10.096Z,5.9
2022-10-20T02:50:10.099Z,5.9
2022-10-20T02:55:10.174Z,5.9
2022-10-20T03:00:10.120Z,5.9
2022-10-20T03:05:10.104Z,5.8
2022-10-20T03:10:10.095Z,5.8
2022-10-20T03:15:10.104Z,5.8
2022-10-20T03:20:10.097Z,5.8
2022-10-20T03:25:10.109Z,5.7
2022-10-20T03:30:10.113Z,5.7
2022-10-20T03:35:10.101Z,5.7
2022-10-20T03:40:10.105Z,5.7
2022-10-20T03:45:11.731Z,5.7
2022-10-20T03:50:10.103Z,5.6
2022-10-20T03:55:10.095Z,5.6
2022-10-20T04:00:10.094Z,5.6
2022-10-20T04:05:10.106Z,5.6
2022-10-20T04:10:10.124Z,5.6
2022-10-20T04:15:10.107Z,5.5
2022-10-20T04:20:10.110Z,5.5
2022-10-20T04:25:10.101Z,5.5
2022-10-20T04:30:10.110Z,5.5
2022-10-20T04:35:10.126Z,5.5
2022-10-20T04:40:10.095Z,5.5
2022-10-20T04:45:10.107Z,5.5
2022-10-20T04:50:10.109Z,5.5
2022-10-20T04:55:10.096Z,5.5
2022-10-20T05:00:10.104Z,5.4
2022-10-20T05:05:10.089Z,5.4
2022-10-20T05:10:10.134Z,5.4
2022-10-20T05:15:10.092Z,5.4
2022-10-20T05:20:10.106Z,5.4
2022-10-20T05:25:31.803Z,5.3
2022-10-20T05:30:10.110Z,5.3
2022-10-20T05:35:10.109Z,5.3
2022-10-20T05:40:10.106Z,5.3
2022-10-20T05:45:10.105Z,5.3
2022-10-20T05:50:10.103Z,5.3
2022-10-20T05:55:10.106Z,5.3
2022-10-20T06:00:10.110Z,5.3
2022-10-20T06:05:10.086Z,5.3
2022-10-20T06:10:10.102Z,5.3
2022-10-20T06:15:10.107Z,5.3
2022-10-20T06:20:10.104Z,5.3
2022-10-20T06:25:10.092Z,5.4
2022-10-20T06:30:10.106Z,5.4
2022-10-20T06:35:10.100Z,5.5
2022-10-20T06:40:10.110Z,5.5
2022-10-20T06:45:10.743Z,5.7
2022-10-20T06:50:10.110Z,5.7
2022-10-20T06:55:10.108Z,5.9
2022-10-20T07:00:10.100Z,5.9
2022-10-20T07:05:10.107Z,6.1
2022-10-20T07:10:10.105Z,6.4
2022-10-20T07:15:10.110Z,6.7
2022-10-20T07:20:10.109Z,7.1
2022-10-20T07:25:10.103Z,7.4
2022-10-20T07:30:10.108Z,7.7
2022-10-20T07:35:10.101Z,7.7
2022-10-20T07:40:10.102Z,7.9
2022-10-20T07:45:10.092Z,8.3
2022-10-20T07:50:10.103Z,8.8
2022-10-20T07:55:17.551Z,9.2
2022-10-20T08:00:10.108Z,9.6
2022-10-20T08:05:10.119Z,9.8
2022-10-20T08:10:10.109Z,10
2022-10-20T08:15:10.631Z,9.9
2022-10-20T08:20:10.134Z,9.8
2022-10-20T08:25:10.106Z,9.7
2022-10-20T08:30:23.273Z,9.7
2022-10-20T08:35:10.101Z,9.9
2022-10-20T08:40:10.114Z,10.1
2022-10-20T08:45:10.097Z,10.1
2022-10-20T08:50:10.114Z,10.2
2022-10-20T08:55:10.145Z,10.8
2022-10-20T09:00:10.103Z,11.2
2022-10-20T09:05:11.985Z,11.5
2022-10-20T09:10:10.099Z,11.5
2022-10-20T09:15:10.099Z,11.6
2022-10-20T09:20:10.110Z,11.6
2022-10-20T09:25:10.100Z,11.5
2022-10-20T09:30:10.134Z,11.4
2022-10-20T09:35:10.141Z,11.5
2022-10-20T09:40:10.110Z,11.5
2022-10-20T09:45:10.110Z,11.6
2022-10-20T09:50:10.116Z,11.6
2022-10-20T09:55:10.104Z,11.8
2022-10-20T10:00:25.456Z,11.9
2022-10-20T10:05:10.090Z,11.9
2022-10-20T10:10:10.108Z,11.9
2022-10-20T10:15:10.102Z,11.9
2022-10-20T10:20:10.116Z,11.9
2022-10-20T10:25:10.102Z,12.1
2022-10-20T10:30:10.109Z,12.2
2022-10-20T10:35:10.107Z,12.2
2022-10-20T10:40:10.106Z,12.3
2022-10-20T10:45:10.114Z,12.3
2022-10-20T10:50:10.108Z,12.3
2022-10-20T10:55:11.856Z,12.3
2022-10-20T11:00:10.130Z,12.4
2022-10-20T11:05:10.154Z,12.4
2022-10-20T11:10:10.113Z,12.4
2022-10-20T11:15:10.101Z,12.4
2022-10-20T11:20:10.098Z,12.5
2022-10-20T11:25:10.107Z,12.5
2022-10-20T11:30:10.116Z,12.5
2022-10-20T11:35:10.102Z,12.5
2022-10-20T11:40:10.129Z,12.6
2022-10-20T11:45:10.094Z,12.7
2022-10-20T11:50:10.099Z,12.8
2022-10-20T11:55:10.085Z,12.8
2022-10-20T12:00:10.138Z,12.9
2022-10-20T12:05:10.101Z,12.9
2022-10-20T12:10:10.251Z,13
2022-10-20T12:15:10.104Z,13.1
2022-10-20T12:20:10.170Z,13.1
2022-10-20T12:25:10.105Z,13.1
2022-10-20T12:30:10.139Z,13.1
2022-10-20T12:35:10.094Z,13.2
2022-10-20T12:40:10.171Z,13.2
2022-10-20T12:45:10.091Z,13.2
2022-10-20T12:50:10.105Z,13.3
2022-10-20T12:55:10.095Z,13.3
2022-10-20T13:00:10.100Z,13.4
2022-10-20T13:05:10.099Z,13.5
2022-10-20T13:10:10.102Z,13.5
2022-10-20T13:15:10.114Z,13.6
2022-10-20T13:20:10.105Z,13.6
2022-10-20T13:25:10.091Z,13.6
2022-10-20T13:30:10.118Z,13.7
2022-10-20T13:35:10.100Z,13.7
2022-10-20T13:40:10.105Z,13.8
2022-10-20T13:45:10.094Z,13.8
2022-10-20T13:50:10.163Z,13.8
2022-10-20T13:55:10.098Z,13.8
2022-10-20T14:00:10.101Z,13.8
2022-10-20T14:05:10.100Z,13.9
2022-10-20T14:10:10.096Z,13.9
2022-10-20T14:15:10.095Z,13.9
2022-10-20T14:20:10.122Z,13.9
2022-10-20T14:25:10.090Z,13.9
2022-10-20T14:30:10.098Z,14
2022-10-20T14:35:10.094Z,13.9
2022-10-20T14:40:10.111Z,13.9
2022-10-20T14:45:10.100Z,13.9
2022-10-20T14:50:10.103Z,13.9
2022-10-20T14:55:10.095Z,13.9
2022-10-20T15:00:10.114Z,13.9
2022-10-20T15:05:10.110Z,13.9
2022-10-20T15:10:10.138Z,13.9
2022-10-20T15:15:10.118Z,13.9
2022-10-20T15:20:10.107Z,13.9
2022-10-20T15:25:10.094Z,13.9
2022-10-20T15:30:10.102Z,13.9
2022-10-20T15:35:10.107Z,13.8
2022-10-20T15:40:10.105Z,13.8
2022-10-20T15:45:10.101Z,13.8
2022-10-20T15:50:10.102Z,13.7
2022-10-20T15:55:10.105Z,13.7
2022-10-20T16:00:10.103Z,13.7
2022-10-20T16:05:10.122Z,13.6
2022-10-20T16:10:10.108Z,13.6
2022-10-20T16:15:10.090Z,13.6
2022-10-20T16:20:10.107Z,13.5
2022-10-20T16:25:10.088Z,13.5
2022-10-20T16:30:10.112Z,13.5
2022-10-20T16:35:10.097Z,13.5
2022-10-20T16:40:10.106Z,13.4
2022-10-20T16:45:10.137Z,13.4
2022-10-20T16:50:10.119Z,13.4
2022-10-20T16:55:10.095Z,13.4
2022-10-20T17:00:10.107Z,13.4
2022-10-20T17:05:10.093Z,13.4
2022-10-20T17:10:10.105Z,13.3
2022-10-20T17:15:10.108Z,13.3
2022-10-20T17:20:10.106Z,13.3
2022-10-20T17:25:10.097Z,13.3
2022-10-20T17:30:10.099Z,13.3
2022-10-20T17:35:10.109Z,13.2
2022-10-20T17:40:10.164Z,13.2
2022-10-20T17:45:10.102Z,13.2
2022-10-20T17:50:10.100Z,13.1
2022-10-20T17:55:10.092Z,13.1
2022-10-20T18:00:14.517Z,13.1
2022-10-20T18:05:10.103Z,13
2022-10-20T18:10:10.166Z,13
2022-10-20T18:15:10.091Z,13
2022-10-20T18:20:10.110Z,12.9
2022-10-20T18:25:10.108Z,12.9
2022-10-20T18:30:10.102Z,12.9
2022-10-20T18:35:10.160Z,12.9
2022-10-20T18:40:10.111Z,12.9
2022-10-20T18:45:10.100Z,12.8
2022-10-20T18:50:10.112Z,12.8
2022-10-20T18:55:10.088Z,12.8
2022-10-20T19:00:10.105Z,12.8
2022-10-20T19:05:10.092Z,12.8
2022-10-20T19:10:10.109Z,12.8
2022-10-20T19:15:10.116Z,12.7
2022-10-20T19:20:10.134Z,12.7
2022-10-20T19:25:10.111Z,12.7
2022-10-20T19:30:10.223Z,12.7
2022-10-20T19:35:10.104Z,12.7
2022-10-20T19:40:10.113Z,12.6
2022-10-20T19:45:10.109Z,12.6
2022-10-20T19:50:10.106Z,12.6
2022-10-20T19:55:10.096Z,12.6
2022-10-20T20:00:10.103Z,12.6
2022-10-20T20:05:10.109Z,12.6
2022-10-20T20:10:10.109Z,12.6
2022-10-20T20:15:10.111Z,12.6
2022-10-20T20:20:10.105Z,12.5
2022-10-20T20:25:10.099Z,12.5
2022-10-20T20:30:10.101Z,12.5
2022-10-20T20:35:10.119Z,12.5
2022-10-20T20:40:10.109Z,12.5
2022-10-20T20:45:10.106Z,12.4
2022-10-20T20:50:10.111Z,12.4
2022-10-20T20:55:10.108Z,12.4
2022-10-20T21:00:10.104Z,12.4
2022-10-20T21:05:10.099Z,12.4
2022-10-20T21:10:10.104Z,12.4
2022-10-20T21:15:10.102Z,12.4
2022-10-20T21:20:10.099Z,12.4
2022-10-20T21:25:10.097Z,12.4
2022-10-20T21:30:10.109Z,12.4
2022-10-20T21:35:10.093Z,12.4
2022-10-20T21:40:10.112Z,12.4
2022-10-20T21:45:10.096Z,12.4
2022-10-20T21:50:10.104Z,12.4
2022-10-20T21:55:10.098Z,12.4
2022-10-20T22:00:10.104Z,12.4
2022-10-20T22:05:10.093Z,12.4
2022-10-20T22:10:10.103Z,12.4
2022-10-20T22:15:10.093Z,12.4
2022-10-20T22:20:10.110Z,12.4
2022-10-20T22:25:10.108Z,12.4
2022-10-20T22:30:10.115Z,12.4
2022-10-20T22:35:10.096Z,12.4
2022-10-20T22:40:10.097Z,12.4
2022-10-20T22:45:10.092Z,12.4
2022-10-20T22:50:10.113Z,12.4
2022-10-20T22:55:10.114Z,12.4
2022-10-20T23:00:10.114Z,12.4
2022-10-20T23:05:10.111Z,12.4
2022-10-20T23:10:10.096Z,12.4
2022-10-20T23:15:10.098Z,12.4
2022-10-20T23:20:10.109Z,12.4
2022-10-20T23:25:10.102Z,12.4
2022-10-20T23:30:10.101Z,12.4
2022-10-20T23:35:10.104Z,12.4
2022-10-20T23:40:10.111Z,12.4
2022-10-20T23:45:10.106Z,12.4
2022-10-20T23:50:10.104Z,12.3
2022-10-20T23:55:10.838Z,12.3
